Pagrindinis puslapis
METAR-TAF:

METAR-TAF

Oro uostai :

Oberpfaffenhofen, Vokietija

platuma: 48-05N, ilguma: 011-17E, Aukštis: 600 m

Dabartinis oras

Ataskaita buvo paskelbta 30 minutes, ne 10:50 UTC
Vėjas 5 kt iš Rytų, svyruoja nuo Šiaurės/Šiaurės Rytų ir Pietų/Pietryčių
Temperatūra 16°C
Drėgmė 45%
Slėgis 1020 hPa
Matomumas 10 km arba daugiau

METAR: EDMO 311050Z AUTO 09005KT 030V150 9999 // SCT054/// BKN067/// 16/04 Q1020

Laikas: 13:20 (11:20 UTC)


TAF: trūkstamas

Orai ataskaitas ir orų prognozės (METAR, TAF).

turimą stotys yra geltonos ir raudonos taškus žemėlapyje.

Perkelti pele per norėdami pamatyti stoties vardą.

Tada spustelėkite, norėdami matyti oro stebėjimo ir prognozės.

Norėdami pakeisti žemėlapį: spustelėkite ant žalios mygtukų su juodo kryžiaus žemyn,; žalią mygtuką su brūkšneliu, jei norite nutolinti; arba žalių rodyklių gretimoms žemėlapius.


METAR-TAF: